N255SH KLAM-KTPA
Flight info
| Callsign | N255SH |
|---|---|
| Flight time | N/A |
| Altitude | 41000 |
| Route | DCT DRICC DCT AM DCT BELYY DCT SHRLY DCT ZYDCO DCT ZEMAN DCT CHRGE RAYZZ3 |
| Aircraft | C750/M-SBDE3FGIRWXY/HB1 |
Departure
| Time | 2026-04-11 20:54 |
|---|---|
| Airport | Los Alamos Airport (KLAM) |
Arrival
| Time | N/A |
|---|---|
| Airport | Tampa International Airport (KTPA) |
| Time | Latitude | Longitude | Altitude | Speed | Heading |
|---|---|---|---|---|---|
| 2026-04-11 20:48 | 35.88133 | -106.27565 | 7177 ft | 0 kts | 9° |
| 2026-04-11 20:51 | 35.88139 | -106.27570 | 7168 ft | 2 kts | 317° |
| 2026-04-11 20:51 | 35.88140 | -106.27583 | 7184 ft | 1 kts | 263° |
| 2026-04-11 20:51 | 35.88134 | -106.27596 | 7161 ft | 2 kts | 239° |
| 2026-04-11 20:51 | 35.88119 | -106.27624 | 7170 ft | 6 kts | 238° |
| 2026-04-11 20:52 | 35.88118 | -106.27695 | 7172 ft | 10 kts | 283° |
| 2026-04-11 20:52 | 35.88128 | -106.27749 | 7175 ft | 4 kts | 283° |
| 2026-04-11 20:52 | 35.88131 | -106.27763 | 7175 ft | 0 kts | 283° |
| 2026-04-11 20:52 | 35.88132 | -106.27771 | 7176 ft | 4 kts | 283° |
| 2026-04-11 20:53 | 35.88140 | -106.27796 | 7177 ft | 7 kts | 293° |
| 2026-04-11 20:53 | 35.88152 | -106.27842 | 7180 ft | 2 kts | 233° |
| 2026-04-11 20:53 | 35.88141 | -106.27834 | 7179 ft | 2 kts | 111° |
| 2026-04-11 20:53 | 35.88141 | -106.27830 | 7179 ft | 0 kts | 99° |
| 2026-04-11 20:54 | 35.88121 | -106.27717 | 7173 ft | 49 kts | 103° |
| 2026-04-11 20:54 | 35.87980 | -106.26932 | 7131 ft | 130 kts | 103° |
| 2026-04-11 20:54 | 35.87748 | -106.25673 | 7215 ft | 157 kts | 110° |
| 2026-04-11 20:54 | 35.87521 | -106.24343 | 7813 ft | 165 kts | 107° |
| 2026-04-11 20:55 | 35.87276 | -106.22898 | 8004 ft | 179 kts | 112° |
| 2026-04-11 20:55 | 35.86885 | -106.21382 | 8302 ft | 193 kts | 116° |
| 2026-04-11 20:55 | 35.86433 | -106.19690 | 8475 ft | 224 kts | 111° |
| 2026-04-11 20:55 | 35.86009 | -106.17705 | 8550 ft | 257 kts | 109° |
| 2026-04-11 20:56 | 35.85565 | -106.15459 | 8873 ft | 278 kts | 109° |
| 2026-04-11 20:56 | 35.85083 | -106.13091 | 9457 ft | 290 kts | 109° |
| 2026-04-11 20:56 | 35.84568 | -106.10653 | 10077 ft | 296 kts | 109° |
| 2026-04-11 20:56 | 35.84047 | -106.08177 | 10734 ft | 300 kts | 109° |
| 2026-04-11 20:57 | 35.83525 | -106.05669 | 11371 ft | 304 kts | 109° |
| 2026-04-11 20:57 | 35.82994 | -106.03121 | 11942 ft | 310 kts | 109° |
| 2026-04-11 20:57 | 35.82452 | -106.00536 | 12553 ft | 313 kts | 109° |
| 2026-04-11 20:57 | 35.81905 | -105.97931 | 13218 ft | 316 kts | 109° |
| 2026-04-11 20:58 | 35.81351 | -105.95293 | 13880 ft | 319 kts | 109° |
| 2026-04-11 20:58 | 35.80792 | -105.92637 | 14474 ft | 323 kts | 109° |
| 2026-04-11 20:58 | 35.80224 | -105.89940 | 15001 ft | 329 kts | 109° |
| 2026-04-11 20:58 | 35.79623 | -105.87113 | 15049 ft | 353 kts | 109° |
| 2026-04-11 20:59 | 35.78985 | -105.84102 | 15101 ft | 374 kts | 109° |
| 2026-04-11 20:59 | 35.78318 | -105.80926 | 15196 ft | 392 kts | 108° |
| 2026-04-11 20:59 | 35.77633 | -105.77662 | 15747 ft | 394 kts | 108° |
| 2026-04-11 20:59 | 35.76939 | -105.74383 | 16206 ft | 399 kts | 108° |
| 2026-04-11 21:00 | 35.76232 | -105.71063 | 16660 ft | 403 kts | 108° |
| 2026-04-11 21:00 | 35.75519 | -105.67716 | 17172 ft | 407 kts | 108° |
| 2026-04-11 21:00 | 35.74798 | -105.64330 | 17711 ft | 411 kts | 108° |
| 2026-04-11 21:00 | 35.74069 | -105.60906 | 18279 ft | 415 kts | 109° |
| 2026-04-11 21:01 | 35.73332 | -105.57453 | 18775 ft | 418 kts | 109° |
| 2026-04-11 21:01 | 35.72590 | -105.53983 | 19336 ft | 421 kts | 109° |
| 2026-04-11 21:01 | 35.71841 | -105.50485 | 19820 ft | 424 kts | 109° |
| 2026-04-11 21:01 | 35.71086 | -105.46970 | 20380 ft | 427 kts | 108° |
| 2026-04-11 21:02 | 35.70324 | -105.43423 | 20861 ft | 431 kts | 108° |
| 2026-04-11 21:02 | 35.69558 | -105.39857 | 21444 ft | 432 kts | 109° |
| 2026-04-11 21:02 | 35.68824 | -105.36253 | 21963 ft | 438 kts | 105° |
| 2026-04-11 21:02 | 35.68322 | -105.32535 | 22502 ft | 442 kts | 103° |
| 2026-04-11 21:03 | 35.67826 | -105.28796 | 23054 ft | 444 kts | 103° |
| 2026-04-11 21:03 | 35.67305 | -105.25088 | 23614 ft | 447 kts | 104° |
| 2026-04-11 21:03 | 35.66771 | -105.21312 | 24078 ft | 450 kts | 104° |
| 2026-04-11 21:03 | 35.66252 | -105.17512 | 24581 ft | 451 kts | 104° |
| 2026-04-11 21:04 | 35.65726 | -105.13655 | 25081 ft | 452 kts | 104° |
| 2026-04-11 21:04 | 35.65202 | -105.09893 | 25565 ft | 453 kts | 104° |
| 2026-04-11 21:04 | 35.64663 | -105.06064 | 26041 ft | 455 kts | 105° |
| 2026-04-11 21:04 | 35.64128 | -105.02224 | 26510 ft | 457 kts | 105° |
| 2026-04-11 21:05 | 35.63592 | -104.98362 | 26967 ft | 459 kts | 105° |
| 2026-04-11 21:05 | 35.63048 | -104.94490 | 27424 ft | 460 kts | 105° |
| 2026-04-11 21:05 | 35.62501 | -104.90614 | 27868 ft | 463 kts | 105° |
| 2026-04-11 21:05 | 35.61951 | -104.86706 | 28323 ft | 465 kts | 105° |
| 2026-04-11 21:06 | 35.61398 | -104.82780 | 28779 ft | 467 kts | 105° |
| 2026-04-11 21:06 | 35.60840 | -104.78835 | 29239 ft | 470 kts | 106° |
| 2026-04-11 21:06 | 35.60275 | -104.74863 | 29695 ft | 472 kts | 106° |
| 2026-04-11 21:06 | 35.59708 | -104.70878 | 30125 ft | 475 kts | 106° |
| 2026-04-11 21:07 | 35.59136 | -104.66867 | 30492 ft | 479 kts | 106° |
| 2026-04-11 21:07 | 35.58559 | -104.62828 | 30848 ft | 483 kts | 106° |
| 2026-04-11 21:07 | 35.57974 | -104.58752 | 31262 ft | 486 kts | 107° |
| 2026-04-11 21:07 | 35.57385 | -104.54651 | 31634 ft | 490 kts | 107° |
| 2026-04-11 21:08 | 35.56789 | -104.50509 | 32035 ft | 494 kts | 107° |
| 2026-04-11 21:08 | 35.56189 | -104.46356 | 32417 ft | 497 kts | 107° |
| 2026-04-11 21:08 | 35.55580 | -104.42153 | 32764 ft | 502 kts | 107° |
| 2026-04-11 21:08 | 35.54967 | -104.37925 | 33169 ft | 505 kts | 107° |
| 2026-04-11 21:09 | 35.54348 | -104.33670 | 33540 ft | 508 kts | 108° |
| 2026-04-11 21:09 | 35.53723 | -104.29383 | 33911 ft | 512 kts | 108° |
| 2026-04-11 21:09 | 35.53091 | -104.25070 | 34222 ft | 515 kts | 108° |
| 2026-04-11 21:09 | 35.52455 | -104.20728 | 34493 ft | 518 kts | 108° |
| 2026-04-11 21:10 | 35.51814 | -104.16367 | 34752 ft | 522 kts | 108° |
| 2026-04-11 21:10 | 35.51166 | -104.11970 | 34988 ft | 525 kts | 108° |
| 2026-04-11 21:10 | 35.50521 | -104.07606 | 35183 ft | 528 kts | 108° |
| 2026-04-11 21:10 | 35.49867 | -104.03179 | 35725 ft | 520 kts | 108° |
| 2026-04-11 21:11 | 35.49250 | -103.98926 | 37187 ft | 493 kts | 108° |
| 2026-04-11 21:11 | 35.48645 | -103.94834 | 37969 ft | 487 kts | 109° |
| 2026-04-11 21:11 | 35.48008 | -103.90737 | 38200 ft | 491 kts | 109° |
| 2026-04-11 21:11 | 35.47382 | -103.86617 | 38559 ft | 492 kts | 108° |
| 2026-04-11 21:12 | 35.46777 | -103.82484 | 38898 ft | 492 kts | 108° |
| 2026-04-11 21:12 | 35.46166 | -103.78355 | 39207 ft | 492 kts | 108° |
| 2026-04-11 21:12 | 35.45535 | -103.74228 | 39498 ft | 493 kts | 108° |
| 2026-04-11 21:12 | 35.44902 | -103.70092 | 39815 ft | 494 kts | 108° |
| 2026-04-11 21:13 | 35.44280 | -103.65951 | 40097 ft | 495 kts | 108° |
| 2026-04-11 21:13 | 35.43655 | -103.61799 | 40362 ft | 495 kts | 108° |
| 2026-04-11 21:13 | 35.43021 | -103.57648 | 40637 ft | 496 kts | 108° |
| 2026-04-11 21:13 | 35.42383 | -103.53492 | 40922 ft | 496 kts | 108° |
| 2026-04-11 21:14 | 35.41744 | -103.49317 | 41009 ft | 502 kts | 108° |
| 2026-04-11 21:14 | 35.40436 | -103.40791 | 41001 ft | 516 kts | 107° |
| 2026-04-11 21:15 | 35.39088 | -103.32050 | 41010 ft | 528 kts | 107° |
| 2026-04-11 21:15 | 35.37705 | -103.23127 | 40996 ft | 537 kts | 107° |
| 2026-04-11 21:16 | 35.36299 | -103.14093 | 41004 ft | 543 kts | 107° |
| 2026-04-11 21:16 | 35.34869 | -103.04971 | 41007 ft | 548 kts | 107° |
| 2026-04-11 21:17 | 35.33423 | -102.95778 | 41007 ft | 552 kts | 107° |
| 2026-04-11 21:17 | 35.31959 | -102.86528 | 41018 ft | 554 kts | 107° |
| 2026-04-11 21:18 | 35.30482 | -102.77241 | 41018 ft | 557 kts | 107° |
| 2026-04-11 21:18 | 35.28994 | -102.67938 | 41022 ft | 558 kts | 107° |
| 2026-04-11 21:19 | 35.27494 | -102.58600 | 41014 ft | 559 kts | 107° |
| 2026-04-11 21:19 | 35.25983 | -102.49249 | 41003 ft | 560 kts | 107° |
| 2026-04-11 21:20 | 35.24465 | -102.39900 | 41001 ft | 561 kts | 107° |
| 2026-04-11 21:20 | 35.22939 | -102.30548 | 40996 ft | 561 kts | 107° |
| 2026-04-11 21:21 | 35.21404 | -102.21196 | 40996 ft | 561 kts | 107° |
| 2026-04-11 21:21 | 35.19853 | -102.11788 | 41002 ft | 561 kts | 107° |
| 2026-04-11 21:22 | 35.18315 | -102.02508 | 41030 ft | 561 kts | 107° |
| 2026-04-11 21:22 | 35.16759 | -101.93164 | 41065 ft | 561 kts | 107° |
| 2026-04-11 21:23 | 35.15196 | -101.83822 | 41081 ft | 561 kts | 107° |
| 2026-04-11 21:23 | 35.13177 | -101.74690 | 41098 ft | 554 kts | 114° |
| 2026-04-11 21:24 | 35.10796 | -101.65747 | 41089 ft | 555 kts | 114° |
| 2026-04-11 21:24 | 35.08903 | -101.58235 | 41075 ft | 556 kts | 114° |
| 2026-04-11 21:25 | 35.06536 | -101.49255 | 41051 ft | 556 kts | 114° |
| 2026-04-11 21:25 | 35.04209 | -101.40254 | 41028 ft | 556 kts | 114° |
| 2026-04-11 21:26 | 35.01850 | -101.31274 | 41017 ft | 556 kts | 114° |
| 2026-04-11 21:26 | 34.99496 | -101.22293 | 41024 ft | 556 kts | 114° |
| 2026-04-11 21:27 | 34.97133 | -101.13320 | 41024 ft | 554 kts | 114° |
| 2026-04-11 21:27 | 34.94777 | -101.04405 | 41019 ft | 550 kts | 114° |
| 2026-04-11 21:28 | 34.92439 | -100.95584 | 41025 ft | 545 kts | 114° |
| 2026-04-11 21:28 | 34.90109 | -100.86829 | 41032 ft | 541 kts | 114° |
| 2026-04-11 21:29 | 34.87788 | -100.78127 | 41035 ft | 539 kts | 114° |
| 2026-04-11 21:29 | 34.85466 | -100.69460 | 41029 ft | 538 kts | 114° |
| 2026-04-11 21:30 | 34.83158 | -100.60864 | 41038 ft | 538 kts | 114° |
| 2026-04-11 21:30 | 34.80809 | -100.52151 | 41039 ft | 539 kts | 114° |
| 2026-04-11 21:31 | 34.78464 | -100.43474 | 41043 ft | 540 kts | 114° |
| 2026-04-11 21:31 | 34.76105 | -100.34778 | 41049 ft | 542 kts | 114° |
| 2026-04-11 21:32 | 34.72547 | -100.21707 | 41056 ft | 544 kts | 114° |
| 2026-04-11 21:32 | 34.70161 | -100.12979 | 41057 ft | 545 kts | 114° |
| 2026-04-11 21:33 | 34.67765 | -100.04240 | 41059 ft | 546 kts | 114° |
| 2026-04-11 21:33 | 34.65359 | -99.95496 | 41049 ft | 546 kts | 114° |
| 2026-04-11 21:34 | 34.62946 | -99.86751 | 41050 ft | 546 kts | 114° |
| 2026-04-11 21:34 | 34.60527 | -99.78013 | 41053 ft | 546 kts | 114° |
| 2026-04-11 21:35 | 34.58102 | -99.69283 | 41056 ft | 546 kts | 114° |
| 2026-04-11 21:35 | 34.55670 | -99.60555 | 41056 ft | 546 kts | 114° |
| 2026-04-11 21:36 | 34.53233 | -99.51830 | 41065 ft | 546 kts | 114° |
| 2026-04-11 21:36 | 34.50786 | -99.43103 | 41063 ft | 547 kts | 114° |
| 2026-04-11 21:37 | 34.48331 | -99.34374 | 41064 ft | 547 kts | 114° |
| 2026-04-11 21:37 | 34.45867 | -99.25642 | 41070 ft | 548 kts | 114° |
| 2026-04-11 21:38 | 34.43394 | -99.16899 | 41075 ft | 549 kts | 114° |
| 2026-04-11 21:38 | 34.40912 | -99.08156 | 41083 ft | 549 kts | 114° |
| 2026-04-11 21:39 | 34.38423 | -98.99415 | 41070 ft | 549 kts | 114° |
| 2026-04-11 21:39 | 34.35931 | -98.90691 | 41067 ft | 549 kts | 114° |
| 2026-04-11 21:40 | 34.33432 | -98.81968 | 41066 ft | 549 kts | 114° |
| 2026-04-11 21:40 | 34.30929 | -98.73257 | 41076 ft | 548 kts | 114° |
| 2026-04-11 21:41 | 34.28420 | -98.64553 | 41085 ft | 548 kts | 114° |
| 2026-04-11 21:41 | 34.25905 | -98.55857 | 41091 ft | 548 kts | 114° |
| 2026-04-11 21:42 | 34.23386 | -98.47168 | 41104 ft | 547 kts | 114° |
| 2026-04-11 21:42 | 34.20859 | -98.38484 | 41104 ft | 548 kts | 114° |
| 2026-04-11 21:43 | 34.18327 | -98.29803 | 41109 ft | 548 kts | 114° |
| 2026-04-11 21:43 | 34.15787 | -98.21125 | 41109 ft | 548 kts | 114° |
| 2026-04-11 21:44 | 34.13033 | -98.12568 | 41124 ft | 546 kts | 117° |
| 2026-04-11 21:44 | 34.10100 | -98.04106 | 41125 ft | 547 kts | 117° |
| 2026-04-11 21:45 | 34.07211 | -97.95603 | 41128 ft | 548 kts | 117° |
| 2026-04-11 21:45 | 34.04270 | -97.87114 | 41128 ft | 549 kts | 117° |
| 2026-04-11 21:46 | 34.01346 | -97.78598 | 41135 ft | 550 kts | 117° |
| 2026-04-11 21:46 | 33.98389 | -97.70078 | 41138 ft | 551 kts | 117° |
| 2026-04-11 21:47 | 33.93957 | -97.57291 | 41136 ft | 552 kts | 117° |
| 2026-04-11 21:48 | 33.90984 | -97.48764 | 41139 ft | 553 kts | 117° |
| 2026-04-11 21:48 | 33.88005 | -97.40224 | 41147 ft | 553 kts | 117° |
| 2026-04-11 21:49 | 33.85009 | -97.31673 | 41156 ft | 557 kts | 117° |
| 2026-04-11 21:49 | 33.81989 | -97.23067 | 41171 ft | 560 kts | 117° |
| 2026-04-11 21:50 | 33.78945 | -97.14423 | 41177 ft | 563 kts | 117° |